Time;durP1;ratioP1;P1;durP2;ratioP2;P2;SDS_P1;SDS_P2;PMS_P1;PMS_P2;Temp;Humidity;BMP_temperature;BMP_pressure;BME280_temperature;BME280_humidity;BME280_pressure;Samples;Min_cycle;Max_cycle;Signal;HPM_P1;HPM_P2
2021/01/05 00:00:13;;;;;;;3.33;2.00;;;2.40;99.90;;;;;;5073533;28;20562;-60
2021/01/05 00:02:40;;;;;;;3.35;2.15;;;2.50;99.90;;;;;;5072134;28;20788;-60
2021/01/05 00:05:07;;;;;;;4.68;1.85;;;2.40;99.90;;;;;;5072983;28;20431;-60
2021/01/05 00:07:34;;;;;;;5.47;2.10;;;2.20;99.90;;;;;;5072543;28;20580;-60
2021/01/05 00:10:00;;;;;;;4.70;2.22;;;2.30;99.90;;;;;;5072978;28;20473;-60
2021/01/05 00:12:26;;;;;;;6.05;2.20;;;2.30;99.90;;;;;;5073117;28;20501;-60
2021/01/05 00:14:53;;;;;;;4.60;1.90;;;2.30;99.90;;;;;;5073372;28;20708;-59
2021/01/05 00:17:21;;;;;;;4.78;2.03;;;2.20;99.90;;;;;;5074129;28;20811;-60
2021/01/05 00:19:48;;;;;;;4.90;2.13;;;2.20;99.90;;;;;;5073571;28;20412;-59
2021/01/05 00:22:16;;;;;;;3.65;1.58;;;2.20;99.90;;;;;;5073517;28;20426;-59
2021/01/05 00:24:43;;;;;;;4.82;2.03;;;2.30;99.90;;;;;;5073138;28;20739;-59
2021/01/05 00:27:09;;;;;;;6.38;2.33;;;2.40;99.90;;;;;;5073259;28;20465;-59
2021/01/05 00:29:36;;;;;;;7.63;2.67;;;2.40;99.90;;;;;;5073572;28;20485;-59
2021/01/05 00:32:06;;;;;;;5.40;2.33;;;2.20;99.90;;;;;;5072933;28;20502;-60
2021/01/05 00:34:33;;;;;;;5.35;1.90;;;2.10;99.90;;;;;;5073170;28;20422;-60
2021/01/05 00:37:00;;;;;;;8.25;2.25;;;2.30;99.90;;;;;;5073244;28;20569;-59
2021/01/05 00:39:26;;;;;;;5.90;2.53;;;2.40;99.90;;;;;;5073280;28;20424;-61
2021/01/05 00:41:53;;;;;;;6.20;2.50;;;2.40;99.90;;;;;;5073495;28;20428;-60
2021/01/05 00:44:19;;;;;;;6.10;2.10;;;2.50;99.90;;;;;;5075056;28;20441;-60
2021/01/05 00:46:45;;;;;;;5.82;2.00;;;2.40;99.90;;;;;;5076353;28;20423;-60
2021/01/05 00:49:12;;;;;;;5.45;2.30;;;2.40;99.90;;;;;;5076764;28;20749;-60
2021/01/05 00:51:39;;;;;;;6.82;2.63;;;2.30;99.90;;;;;;5076984;28;20419;-60
2021/01/05 00:54:05;;;;;;;6.18;2.67;;;2.20;99.90;;;;;;5076523;28;20438;-60
2021/01/05 00:56:31;;;;;;;5.70;2.30;;;2.00;99.90;;;;;;5077285;28;20422;-60
2021/01/05 00:58:58;;;;;;;5.50;2.22;;;2.10;99.90;;;;;;5076570;28;20427;-60
2021/01/05 01:01:24;;;;;;;4.97;1.90;;;2.20;99.90;;;;;;5076324;28;20423;-60
2021/01/05 01:03:51;;;;;;;5.28;2.03;;;2.40;99.90;;;;;;5077140;28;20696;-60
2021/01/05 01:06:18;;;;;;;6.43;2.42;;;2.60;99.90;;;;;;5076963;28;20443;-60
2021/01/05 01:08:45;;;;;;;4.40;2.20;;;2.70;99.90;;;;;;5076447;28;20431;-60
2021/01/05 01:11:12;;;;;;;6.35;2.63;;;2.90;99.90;;;;;;5076501;28;20426;-60
2021/01/05 01:13:39;;;;;;;4.33;2.20;;;2.90;99.90;;;;;;5076757;28;20436;-60
2021/01/05 01:16:06;;;;;;;6.63;2.30;;;2.90;99.90;;;;;;5075980;28;20425;-60
2021/01/05 01:18:32;;;;;;;5.47;2.57;;;2.90;99.90;;;;;;5075735;28;20488;-60
2021/01/05 01:20:59;;;;;;;6.85;2.90;;;2.90;99.90;;;;;;5075482;28;20424;-59
2021/01/05 01:23:26;;;;;;;4.82;1.65;;;2.80;99.90;;;;;;5075253;28;20431;-60
2021/01/05 01:25:53;;;;;;;6.25;2.50;;;2.90;99.90;;;;;;5073311;28;20473;-60
2021/01/05 01:28:19;;;;;;;6.15;2.38;;;2.90;99.90;;;;;;5071228;28;20423;-60
2021/01/05 01:30:47;;;;;;;3.92;2.00;;;2.80;99.90;;;;;;5072954;28;20422;-60
2021/01/05 01:33:13;;;;;;;5.78;2.75;;;2.80;99.90;;;;;;5074176;28;20428;-60
2021/01/05 01:35:39;;;;;;;7.17;2.70;;;2.80;99.90;;;;;;5074446;28;20866;-60
2021/01/05 01:38:05;;;;;;;4.25;2.33;;;2.90;99.90;;;;;;5073345;28;20419;-60
2021/01/05 01:40:37;;;;;;;6.70;2.50;;;2.90;99.90;;;;;;5074353;28;20422;-60
2021/01/05 01:43:04;;;;;;;7.07;3.03;;;2.90;99.90;;;;;;5074395;28;20485;-60
2021/01/05 01:45:33;;;;;;;6.30;2.95;;;2.70;99.90;;;;;;5072910;28;20493;-60
2021/01/05 01:48:01;;;;;;;6.05;2.72;;;2.60;99.90;;;;;;5072843;28;20431;-60
2021/01/05 01:50:31;;;;;;;6.05;2.53;;;2.80;99.90;;;;;;5072194;28;20415;-61
2021/01/05 01:53:30;;;;;;;6.05;2.85;;;2.90;99.90;;;;;;5073031;28;20430;-60
2021/01/05 01:56:24;;;;;;;7.22;2.90;;;3.00;99.90;;;;;;5071513;28;20468;-59
2021/01/05 01:58:56;;;;;;;5.20;2.30;;;2.80;99.90;;;;;;5072752;28;20427;-60
2021/01/05 02:01:41;;;;;;;5.53;2.60;;;2.80;99.90;;;;;;5074184;28;20637;-60
2021/01/05 02:04:38;;;;;;;6.45;2.90;;;2.80;99.90;;;;;;5075526;28;20435;-60
2021/01/05 02:07:27;;;;;;;4.03;1.85;;;2.80;99.90;;;;;;5075115;28;20905;-60
2021/01/05 02:10:26;;;;;;;6.50;2.88;;;2.70;99.90;;;;;;5072434;28;20431;-60
2021/01/05 02:13:03;;;;;;;8.00;3.10;;;2.70;99.90;;;;;;5068923;28;20428;-60
2021/01/05 02:15:34;;;;;;;6.00;2.83;;;2.50;99.90;;;;;;5073691;28;20761;-60
2021/01/05 02:18:18;;;;;;;5.65;2.67;;;2.20;99.90;;;;;;5074187;28;20485;-59
2021/01/05 02:20:48;;;;;;;4.80;2.40;;;2.00;99.90;;;;;;5074114;28;20849;-60
2021/01/05 02:23:31;;;;;;;7.97;3.17;;;2.10;99.90;;;;;;5074263;28;20420;-60
2021/01/05 02:26:04;;;;;;;8.20;3.40;;;2.30;99.90;;;;;;5073714;28;20434;-59
2021/01/05 02:28:35;;;;;;;5.82;2.30;;;2.40;99.90;;;;;;5074067;28;20462;-60
2021/01/05 02:31:10;;;;;;;6.65;2.75;;;2.20;99.90;;;;;;5074971;28;20419;-60
2021/01/05 02:33:50;;;;;;;4.93;2.30;;;2.10;99.90;;;;;;5075379;28;20845;-60
2021/01/05 02:36:47;;;;;;;6.60;2.83;;;2.20;99.90;;;;;;5074264;28;20806;-60
2021/01/05 02:39:47;;;;;;;8.45;3.20;;;2.20;99.90;;;;;;5075666;28;20430;-60
2021/01/05 02:42:28;;;;;;;7.15;2.72;;;2.10;99.90;;;;;;5074864;28;20424;-60
2021/01/05 02:45:02;;;;;;;8.10;2.90;;;2.40;99.90;;;;;;5074650;28;20435;-60
2021/01/05 02:47:57;;;;;;;7.70;2.40;;;2.70;99.90;;;;;;5074819;28;20423;-60
2021/01/05 02:50:53;;;;;;;5.65;2.40;;;2.60;99.90;;;;;;5075073;28;20424;-60
2021/01/05 02:53:52;;;;;;;5.40;2.20;;;2.60;99.90;;;;;;5074230;28;20458;-60
2021/01/05 02:57:00;;;;;;;5.90;2.80;;;2.70;99.90;;;;;;5074640;28;20514;-60
2021/01/05 03:00:14;;;;;;;6.90;2.90;;;2.90;99.90;;;;;;5074500;28;20418;-60
2021/01/05 03:03:18;;;;;;;6.80;2.85;;;2.90;99.90;;;;;;5074651;28;20423;-60
2021/01/05 03:05:47;;;;;;;5.70;2.75;;;3.00;99.90;;;;;;5074658;28;20436;-60
2021/01/05 03:08:16;;;;;;;5.93;2.55;;;3.10;99.90;;;;;;5074226;28;20457;-60
2021/01/05 03:10:54;;;;;;;7.10;2.60;;;3.20;99.90;;;;;;5074243;28;20427;-60
2021/01/05 03:13:35;;;;;;;7.90;2.78;;;3.30;99.90;;;;;;5074763;28;20434;-60
2021/01/05 03:16:07;;;;;;;6.85;2.70;;;3.40;99.90;;;;;;5074389;28;20912;-61
2021/01/05 03:18:45;;;;;;;6.13;2.72;;;3.50;99.90;;;;;;5074552;28;20877;-61
2021/01/05 03:21:16;;;;;;;9.02;4.05;;;3.40;99.90;;;;;;5073449;28;20703;-61
2021/01/05 03:23:46;;;;;;;6.82;3.35;;;3.30;99.90;;;;;;5074505;28;20454;-61
2021/01/05 03:26:15;;;;;;;9.07;3.42;;;3.00;99.90;;;;;;5073776;28;20441;-61
2021/01/05 03:28:41;;;;;;;9.05;3.50;;;3.10;99.90;;;;;;5074525;28;20427;-61
2021/01/05 03:31:12;;;;;;;8.45;3.70;;;2.80;99.90;;;;;;5074739;28;20453;-61
2021/01/05 03:33:39;;;;;;;9.57;4.28;;;2.90;99.90;;;;;;5073421;28;20436;-61
2021/01/05 03:36:06;;;;;;;7.22;3.30;;;3.00;99.90;;;;;;5074409;28;20422;-61
2021/01/05 03:38:32;;;;;;;9.02;3.90;;;3.10;99.90;;;;;;5073989;28;20431;-61
2021/01/05 03:40:59;;;;;;;9.73;4.10;;;3.20;99.90;;;;;;5074537;28;20476;-61
2021/01/05 03:43:25;;;;;;;12.25;5.00;;;3.20;99.90;;;;;;5074077;28;20430;-61
2021/01/05 03:45:52;;;;;;;9.25;4.30;;;3.20;99.90;;;;;;5073518;28;20435;-61
2021/01/05 03:48:18;;;;;;;7.68;3.42;;;3.20;99.90;;;;;;5074278;28;20439;-61
2021/01/05 03:50:46;;;;;;;7.20;3.77;;;3.40;99.90;;;;;;5074444;28;20427;-61
2021/01/05 03:53:12;;;;;;;7.47;3.72;;;3.40;99.90;;;;;;5073806;28;20427;-61
2021/01/05 03:55:39;;;;;;;10.00;4.43;;;3.30;99.90;;;;;;5074314;28;20415;-61
2021/01/05 03:58:05;;;;;;;7.97;3.75;;;3.20;99.90;;;;;;5074290;28;20521;-61
2021/01/05 04:00:31;;;;;;;9.20;4.03;;;3.30;99.90;;;;;;5073977;28;20506;-61
2021/01/05 04:02:59;;;;;;;9.30;3.85;;;3.30;99.90;;;;;;5073625;28;20506;-61
2021/01/05 04:05:26;;;;;;;9.70;4.00;;;3.40;99.90;;;;;;5073884;28;20511;-61
2021/01/05 04:07:54;;;;;;;8.02;3.50;;;3.10;99.90;;;;;;5074211;28;20434;-61
2021/01/05 04:10:21;;;;;;;7.75;3.30;;;3.20;99.90;;;;;;5073782;28;20423;-61
2021/01/05 04:12:47;;;;;;;6.72;2.95;;;3.30;99.90;;;;;;5073669;28;20551;-61
2021/01/05 04:15:17;;;;;;;8.20;3.40;;;3.50;99.90;;;;;;5072192;28;20415;-61
2021/01/05 04:17:44;;;;;;;6.93;3.20;;;3.40;99.90;;;;;;5072638;28;20428;-61
2021/01/05 04:20:12;;;;;;;8.80;3.42;;;3.40;99.90;;;;;;5076356;28;20433;-61
2021/01/05 04:22:38;;;;;;;9.90;4.07;;;3.50;99.90;;;;;;5074496;28;20666;-61
2021/01/05 04:25:07;;;;;;;7.95;3.28;;;3.50;99.90;;;;;;5074300;28;20437;-61
2021/01/05 04:27:33;;;;;;;8.38;3.45;;;3.50;99.90;;;;;;5074773;28;20431;-61
2021/01/05 04:30:00;;;;;;;7.38;3.40;;;3.50;99.90;;;;;;5074636;28;20415;-61
2021/01/05 04:32:26;;;;;;;8.47;3.80;;;3.50;99.90;;;;;;5074513;28;20430;-61
2021/01/05 04:34:52;;;;;;;6.75;2.83;;;3.50;99.90;;;;;;5075252;28;20687;-61
2021/01/05 04:37:19;;;;;;;9.02;3.90;;;3.40;99.90;;;;;;5076570;28;20439;-61
2021/01/05 04:39:45;;;;;;;9.02;3.25;;;3.30;99.90;;;;;;5077031;28;20431;-61
2021/01/05 04:42:19;;;;;;;9.07;3.83;;;3.20;99.90;;;;;;5076532;28;20419;-61
2021/01/05 04:44:56;;;;;;;8.07;3.88;;;3.40;99.90;;;;;;5075726;28;20431;-61
2021/01/05 04:47:30;;;;;;;9.02;4.13;;;3.50;99.90;;;;;;5075861;28;20423;-61
2021/01/05 04:50:10;;;;;;;10.70;4.72;;;3.40;99.90;;;;;;5075649;28;20422;-60
2021/01/05 04:52:49;;;;;;;6.90;3.53;;;3.20;99.90;;;;;;5075425;28;20446;-60
2021/01/05 04:55:26;;;;;;;8.82;4.63;;;3.10;99.90;;;;;;5074482;28;20420;-60
2021/01/05 04:58:04;;;;;;;7.38;3.75;;;3.10;99.90;;;;;;5076137;28;20431;-60
2021/01/05 05:00:31;;;;;;;6.45;3.47;;;3.30;99.90;;;;;;5076991;28;20472;-60
2021/01/05 05:03:05;;;;;;;9.70;4.50;;;3.30;99.90;;;;;;5076747;28;20455;-62
2021/01/05 05:05:43;;;;;;;9.25;4.20;;;3.30;99.90;;;;;;5075335;28;20466;-61
2021/01/05 05:08:25;;;;;;;9.67;4.67;;;3.10;99.90;;;;;;5075115;28;20427;-61
2021/01/05 05:10:58;;;;;;;9.38;4.65;;;2.80;99.90;;;;;;5075145;28;20510;-61
2021/01/05 05:13:34;;;;;;;8.60;4.60;;;2.80;99.90;;;;;;5075212;28;20552;-62
2021/01/05 05:16:12;;;;;;;9.90;4.40;;;2.90;99.90;;;;;;5074880;28;20839;-62
2021/01/05 05:18:50;;;;;;;8.35;4.15;;;3.10;99.90;;;;;;5076192;28;20453;-62
2021/01/05 05:21:29;;;;;;;8.85;4.20;;;3.20;99.90;;;;;;5076821;28;20443;-62
2021/01/05 05:24:04;;;;;;;7.95;3.90;;;3.30;99.90;;;;;;5075292;28;20524;-62
2021/01/05 05:26:40;;;;;;;6.53;3.67;;;3.40;99.90;;;;;;5074684;28;20438;-61
2021/01/05 05:29:18;;;;;;;10.00;4.00;;;3.40;99.90;;;;;;5075142;28;20427;-61
2021/01/05 05:31:48;;;;;;;9.35;5.20;;;3.50;99.90;;;;;;5073635;28;20420;-62
2021/01/05 05:34:22;;;;;;;12.27;4.63;;;3.40;99.90;;;;;;5075138;28;20434;-62
2021/01/05 05:37:15;;;;;;;7.63;4.40;;;3.30;99.90;;;;;;5075099;28;20784;-62
2021/01/05 05:40:09;;;;;;;11.48;5.55;;;3.00;99.90;;;;;;5076136;28;20509;-61
2021/01/05 05:42:58;;;;;;;8.43;3.73;;;2.80;99.90;;;;;;5075948;28;20426;-62
2021/01/05 05:45:30;;;;;;;8.65;4.63;;;2.90;99.90;;;;;;5075866;28;20431;-62
2021/01/05 05:48:04;;;;;;;8.35;3.72;;;3.00;99.90;;;;;;5076071;28;20431;-62
2021/01/05 05:50:38;;;;;;;9.98;4.55;;;3.10;99.90;;;;;;5075859;28;20419;-63
2021/01/05 05:53:11;;;;;;;10.45;5.35;;;3.10;99.90;;;;;;5075521;28;20428;-61
2021/01/05 05:55:47;;;;;;;9.23;3.80;;;3.40;99.90;;;;;;5074808;28;20451;-60
2021/01/05 05:58:18;;;;;;;7.05;4.00;;;3.60;99.90;;;;;;5074381;28;20469;-60
2021/01/05 06:00:47;;;;;;;7.40;3.08;;;3.90;99.90;;;;;;5075002;28;20420;-60
2021/01/05 06:03:16;;;;;;;7.75;3.58;;;3.90;99.90;;;;;;5074557;28;20843;-60
2021/01/05 06:05:43;;;;;;;7.77;3.80;;;4.20;99.90;;;;;;5074650;28;20431;-60
2021/01/05 06:08:11;;;;;;;7.22;3.85;;;4.50;99.90;;;;;;5074869;28;20522;-60
2021/01/05 06:10:37;;;;;;;8.32;3.60;;;4.80;99.90;;;;;;5075815;28;20419;-61
2021/01/05 06:13:04;;;;;;;8.43;4.40;;;4.90;99.90;;;;;;5075499;28;20438;-60
2021/01/05 06:15:33;;;;;;;8.90;4.50;;;4.80;99.90;;;;;;5075023;28;20473;-61
2021/01/05 06:18:01;;;;;;;9.32;4.30;;;4.50;99.90;;;;;;5081426;28;20536;-60
2021/01/05 06:20:27;;;;;;;8.35;4.25;;;4.50;99.90;;;;;;5087302;28;20421;-61
2021/01/05 06:22:54;;;;;;;6.77;3.83;;;4.40;99.90;;;;;;5076596;28;20432;-61
2021/01/05 06:25:22;;;;;;;8.25;3.65;;;4.60;99.90;;;;;;5079568;28;20576;-61
2021/01/05 06:27:48;;;;;;;11.93;4.25;;;4.70;99.90;;;;;;5075204;28;20496;-61
2021/01/05 06:30:15;;;;;;;8.18;3.83;;;4.90;99.90;;;;;;5074899;28;20419;-61
2021/01/05 06:32:42;;;;;;;8.05;4.00;;;4.90;99.90;;;;;;5074717;28;20504;-61
2021/01/05 06:35:11;;;;;;;9.88;5.00;;;4.90;99.90;;;;;;5073597;28;20502;-61
2021/01/05 06:37:39;;;;;;;9.95;4.70;;;4.20;99.90;;;;;;5073056;28;20431;-61
2021/01/05 06:40:07;;;;;;;8.98;5.00;;;4.00;99.90;;;;;;5072502;28;20415;-61
2021/01/05 06:42:33;;;;;;;8.10;3.72;;;3.60;99.90;;;;;;5072586;28;20730;-61
2021/01/05 06:45:00;;;;;;;9.52;5.15;;;4.00;99.90;;;;;;5072141;28;20431;-61
2021/01/05 06:47:26;;;;;;;8.77;4.18;;;4.30;99.90;;;;;;5073120;28;20738;-61
2021/01/05 06:49:52;;;;;;;8.30;4.38;;;4.50;99.90;;;;;;5073126;28;20411;-61
2021/01/05 06:52:20;;;;;;;8.60;4.00;;;4.30;99.90;;;;;;5073579;28;20430;-61
2021/01/05 06:54:46;;;;;;;9.32;4.32;;;4.00;99.90;;;;;;5074463;28;20428;-61
2021/01/05 06:57:12;;;;;;;6.90;3.60;;;3.60;99.90;;;;;;5074626;28;21045;-61
2021/01/05 06:59:39;;;;;;;9.23;4.25;;;3.80;99.90;;;;;;5074546;28;20423;-61
2021/01/05 07:02:06;;;;;;;9.70;4.07;;;3.60;99.90;;;;;;5074165;28;20419;-61
2021/01/05 07:04:33;;;;;;;8.20;3.83;;;3.50;99.90;;;;;;5074028;28;20589;-61
2021/01/05 07:07:01;;;;;;;8.95;4.22;;;3.80;99.90;;;;;;5074179;28;20421;-61
2021/01/05 07:09:29;;;;;;;7.32;3.63;;;4.10;99.90;;;;;;5072881;28;20789;-61
2021/01/05 07:11:55;;;;;;;7.80;4.50;;;4.30;99.90;;;;;;5073251;28;20515;-61
2021/01/05 07:14:24;;;;;;;7.13;3.70;;;4.20;99.90;;;;;;5074677;28;20436;-61
2021/01/05 07:16:50;;;;;;;11.07;5.28;;;4.30;99.90;;;;;;5074457;28;20422;-61
2021/01/05 07:19:17;;;;;;;7.35;3.95;;;4.30;99.90;;;;;;5072938;28;20427;-61
2021/01/05 07:21:44;;;;;;;5.88;3.58;;;4.20;99.90;;;;;;5072404;28;20419;-61
2021/01/05 07:24:11;;;;;;;8.38;3.83;;;4.40;99.90;;;;;;5072500;28;20617;-61
2021/01/05 07:26:41;;;;;;;5.80;3.00;;;4.40;99.90;;;;;;5072496;28;20825;-61
2021/01/05 07:29:08;;;;;;;8.27;3.83;;;4.20;99.90;;;;;;5072809;28;20528;-61
2021/01/05 07:31:34;;;;;;;9.88;4.75;;;4.00;99.90;;;;;;5081625;28;20422;-61
2021/01/05 07:34:00;;;;;;;9.05;4.28;;;3.80;99.90;;;;;;5092416;28;20425;-61
2021/01/05 07:36:31;;;;;;;7.05;3.45;;;3.60;99.90;;;;;;5092574;28;20472;-61
2021/01/05 07:38:57;;;;;;;9.20;4.55;;;3.60;99.90;;;;;;5093627;28;20422;-61
2021/01/05 07:41:24;;;;;;;8.77;3.20;;;3.50;99.90;;;;;;5091755;28;20482;-62
2021/01/05 07:43:51;;;;;;;9.13;3.92;;;3.60;99.90;;;;;;5091350;28;20437;-61
2021/01/05 07:46:17;;;;;;;7.75;3.55;;;3.90;99.90;;;;;;5091104;28;20465;-61
2021/01/05 07:48:44;;;;;;;6.50;3.15;;;4.10;99.90;;;;;;5092167;28;20459;-60
2021/01/05 07:51:11;;;;;;;10.85;4.53;;;4.40;99.90;;;;;;5091524;28;20422;-60
2021/01/05 07:53:37;;;;;;;7.93;3.97;;;4.30;99.90;;;;;;5091884;28;20426;-62
2021/01/05 07:56:04;;;;;;;8.37;4.00;;;3.70;99.90;;;;;;5091517;28;20414;-60
2021/01/05 07:58:32;;;;;;;6.78;3.20;;;3.60;99.90;;;;;;5089314;28;20497;-60
2021/01/05 08:01:00;;;;;;;6.85;2.97;;;3.80;99.90;;;;;;5072676;28;20427;-60
2021/01/05 08:03:26;;;;;;;7.68;3.15;;;4.10;99.90;;;;;;5076840;28;20431;-60
2021/01/05 08:05:52;;;;;;;8.03;4.00;;;4.10;99.90;;;;;;5080587;28;20528;-60
2021/01/05 08:08:19;;;;;;;7.00;3.25;;;4.20;99.90;;;;;;5091201;28;20433;-60
2021/01/05 08:10:46;;;;;;;5.07;3.00;;;4.30;99.90;;;;;;5092591;28;20848;-60
2021/01/05 08:13:13;;;;;;;8.20;3.35;;;4.50;99.90;;;;;;5088193;28;20457;-60
2021/01/05 08:15:39;;;;;;;6.10;2.75;;;4.60;99.90;;;;;;5093772;28;20414;-60
2021/01/05 08:18:07;;;;;;;5.80;3.42;;;4.70;99.90;;;;;;5093575;28;20517;-60
2021/01/05 08:20:34;;;;;;;5.80;3.00;;;4.40;99.90;;;;;;5093138;28;20422;-59
2021/01/05 08:23:03;;;;;;;7.13;2.30;;;4.50;99.90;;;;;;5093384;28;20424;-59
2021/01/05 08:25:30;;;;;;;4.30;2.30;;;4.70;99.90;;;;;;5092723;28;20720;-60
2021/01/05 08:27:56;;;;;;;6.80;3.10;;;4.80;99.90;;;;;;5092023;28;20436;-60
2021/01/05 08:30:25;;;;;;;7.22;2.65;;;4.90;99.90;;;;;;5093795;28;20421;-61
2021/01/05 08:32:52;;;;;;;6.18;3.10;;;5.20;99.90;;;;;;5092730;28;20422;-60
2021/01/05 08:35:22;;;;;;;6.13;3.17;;;5.10;99.90;;;;;;5092920;28;20910;-60
2021/01/05 08:37:49;;;;;;;5.78;2.85;;;5.10;99.90;;;;;;5093581;28;20426;-60
2021/01/05 08:40:18;;;;;;;6.10;2.45;;;5.10;99.90;;;;;;5092814;28;20417;-60
2021/01/05 08:42:44;;;;;;;6.35;2.95;;;5.20;99.90;;;;;;5092810;28;20423;-60
2021/01/05 08:45:12;;;;;;;5.40;2.75;;;5.20;99.90;;;;;;5092368;28;20434;-60
2021/01/05 08:47:38;;;;;;;6.25;3.08;;;5.30;99.90;;;;;;5091233;28;21581;-60
2021/01/05 08:50:08;;;;;;;4.20;2.47;;;5.00;99.90;;;;;;5092561;28;20410;-60
2021/01/05 08:52:35;;;;;;;5.75;2.30;;;4.80;99.90;;;;;;5090539;28;20430;-60
2021/01/05 08:55:01;;;;;;;5.75;2.47;;;4.50;99.90;;;;;;5091273;28;20414;-60
2021/01/05 08:57:27;;;;;;;7.63;3.00;;;4.00;99.90;;;;;;5092050;28;20498;-60
2021/01/05 08:59:55;;;;;;;6.75;3.05;;;3.70;99.90;;;;;;5091901;28;20478;-60
2021/01/05 09:02:21;;;;;;;5.07;2.92;;;3.90;99.90;;;;;;5091517;28;20494;-61
2021/01/05 09:04:47;;;;;;;6.10;3.00;;;3.40;99.90;;;;;;5093391;28;20418;-60
2021/01/05 09:07:18;;;;;;;6.28;2.50;;;3.20;99.90;;;;;;5096224;28;20833;-60
2021/01/05 09:09:46;;;;;;;5.63;2.88;;;3.50;99.90;;;;;;5096431;28;20417;-60
2021/01/05 09:12:12;;;;;;;9.30;2.70;;;4.00;99.90;;;;;;5095596;28;20882;-59
2021/01/05 09:14:38;;;;;;;5.57;2.70;;;4.60;99.90;;;;;;5094633;28;20873;-60
2021/01/05 09:17:05;;;;;;;4.00;2.35;;;4.60;99.90;;;;;;5088168;28;20422;-60
2021/01/05 09:19:32;;;;;;;7.50;3.30;;;4.70;99.90;;;;;;5080067;28;20416;-60
2021/01/05 09:21:59;;;;;;;7.05;2.38;;;4.40;99.90;;;;;;5083002;28;20423;-59
2021/01/05 09:24:25;;;;;;;5.50;3.00;;;4.50;99.90;;;;;;5083321;28;20442;-59
2021/01/05 09:26:54;;;;;;;3.42;1.67;;;4.40;99.90;;;;;;5077314;28;20431;-58
2021/01/05 09:29:21;;;;;;;5.68;2.35;;;4.90;99.90;;;;;;5089140;28;20436;-58
2021/01/05 09:31:49;;;;;;;5.72;2.70;;;5.10;99.90;;;;;;5092345;28;20418;-58
2021/01/05 09:34:17;;;;;;;6.68;2.10;;;5.10;99.90;;;;;;5089196;28;20430;-59
2021/01/05 09:36:43;;;;;;;5.15;2.15;;;5.20;99.90;;;;;;5074628;28;20411;-59
2021/01/05 09:39:12;;;;;;;3.45;2.00;;;5.20;99.90;;;;;;5073585;28;20423;-58
2021/01/05 09:41:40;;;;;;;4.55;2.42;;;5.40;99.90;;;;;;5074715;28;20420;-58
2021/01/05 09:44:09;;;;;;;5.93;3.30;;;5.30;99.90;;;;;;5078630;28;20816;-59
2021/01/05 09:46:38;;;;;;;6.10;3.10;;;5.30;99.90;;;;;;5095152;28;20857;-58
2021/01/05 09:49:05;;;;;;;5.55;2.90;;;5.10;99.90;;;;;;5095522;28;20856;-60
2021/01/05 09:51:32;;;;;;;4.85;2.33;;;4.90;99.90;;;;;;5090022;28;20425;-58
2021/01/05 09:53:58;;;;;;;5.32;2.10;;;5.20;99.90;;;;;;5079517;28;20438;-58
2021/01/05 09:56:25;;;;;;;6.90;2.80;;;5.50;99.90;;;;;;5094400;28;20479;-57
2021/01/05 09:58:51;;;;;;;5.50;2.67;;;5.30;99.90;;;;;;5095014;28;20863;-59
2021/01/05 10:01:25;;;;;;;5.65;3.08;;;4.80;99.90;;;;;;5094002;28;20426;-59
2021/01/05 10:03:52;;;;;;;5.97;3.60;;;4.30;99.90;;;;;;5095002;28;20821;-58
2021/01/05 10:06:18;;;;;;;6.72;3.42;;;4.50;99.90;;;;;;5091058;28;20734;-59
2021/01/05 10:08:45;;;;;;;7.53;3.10;;;4.60;99.90;;;;;;5073924;28;20431;-59
2021/01/05 10:11:11;;;;;;;6.30;2.85;;;4.50;99.90;;;;;;5074581;28;20822;-59
2021/01/05 10:13:37;;;;;;;6.78;3.03;;;4.10;99.90;;;;;;5078681;28;20928;-59
2021/01/05 10:16:04;;;;;;;7.85;3.90;;;4.20;99.90;;;;;;5092127;28;20414;-60
2021/01/05 10:18:31;;;;;;;5.90;2.50;;;4.00;99.90;;;;;;5089895;28;20807;-60
2021/01/05 10:20:58;;;;;;;7.10;2.30;;;4.20;99.90;;;;;;5073161;28;20886;-59
2021/01/05 10:23:24;;;;;;;6.07;2.60;;;4.70;99.90;;;;;;5075110;28;20444;-58
2021/01/05 10:25:50;;;;;;;5.73;2.23;;;5.20;99.90;;;;;;5077352;28;20445;-59
2021/01/05 10:28:19;;;;;;;6.20;2.50;;;5.50;99.90;;;;;;5089625;28;20484;-60
2021/01/05 10:30:45;;;;;;;5.97;2.65;;;5.40;99.90;;;;;;5090530;28;20414;-60
2021/01/05 10:33:11;;;;;;;8.30;3.30;;;5.40;99.90;;;;;;5092585;28;20429;-60
2021/01/05 10:35:39;;;;;;;6.40;2.50;;;5.00;99.90;;;;;;5093693;28;20477;-60
2021/01/05 10:38:05;;;;;;;4.80;2.30;;;4.80;99.90;;;;;;5093458;28;20533;-60
2021/01/05 10:40:31;;;;;;;8.68;3.72;;;5.00;99.90;;;;;;5094135;28;20759;-60
2021/01/05 10:42:58;;;;;;;5.80;3.22;;;5.00;99.90;;;;;;5093498;28;20864;-60
2021/01/05 10:45:27;;;;;;;5.63;2.80;;;5.00;99.90;;;;;;5094462;28;20426;-63
2021/01/05 10:47:54;;;;;;;6.22;2.85;;;5.20;99.90;;;;;;5093384;28;20433;-60
2021/01/05 10:50:23;;;;;;;5.88;2.95;;;5.20;99.90;;;;;;5093383;28;20440;-60
2021/01/05 10:52:51;;;;;;;5.70;2.40;;;4.90;99.90;;;;;;5091931;28;20966;-61
2021/01/05 10:55:20;;;;;;;6.68;3.85;;;5.00;99.90;;;;;;5092939;28;20418;-60
2021/01/05 10:57:48;;;;;;;7.40;3.80;;;4.90;99.90;;;;;;5093195;28;20759;-62
2021/01/05 11:00:17;;;;;;;6.60;3.22;;;4.90;99.90;;;;;;5093335;28;20490;-63
2021/01/05 11:02:43;;;;;;;6.60;3.65;;;4.70;99.90;;;;;;5093220;28;20421;-61
2021/01/05 11:05:13;;;;;;;6.65;3.50;;;4.40;99.90;;;;;;5093219;28;20449;-61
2021/01/05 11:07:40;;;;;;;6.43;3.40;;;4.10;99.90;;;;;;5092843;28;20736;-61
2021/01/05 11:10:09;;;;;;;7.28;3.10;;;4.00;99.90;;;;;;5092368;28;20422;-61
2021/01/05 11:12:35;;;;;;;6.18;3.00;;;4.00;99.90;;;;;;5091617;28;20509;-61
2021/01/05 11:15:01;;;;;;;7.30;3.30;;;3.90;99.90;;;;;;5086362;28;20433;-60
2021/01/05 11:17:28;;;;;;;10.32;4.50;;;3.90;99.90;;;;;;5071411;28;20431;-61
2021/01/05 11:19:54;;;;;;;5.72;3.30;;;3.90;99.90;;;;;;5071884;28;20412;-60
2021/01/05 11:22:21;;;;;;;6.93;3.30;;;4.10;99.90;;;;;;5068905;28;20419;-62
2021/01/05 11:24:47;;;;;;;7.38;3.90;;;4.10;99.90;;;;;;5071380;28;20423;-60
2021/01/05 11:27:16;;;;;;;8.77;4.57;;;4.10;99.90;;;;;;5081466;28;20789;-61
2021/01/05 11:29:44;;;;;;;6.93;3.27;;;3.80;99.90;;;;;;5071678;28;20423;-61
2021/01/05 11:32:12;;;;;;;7.90;4.00;;;3.50;99.90;;;;;;5089071;28;20457;-60
2021/01/05 11:34:39;;;;;;;7.07;3.38;;;3.60;99.90;;;;;;5088256;28;20446;-60
2021/01/05 11:37:08;;;;;;;6.70;3.03;;;3.90;99.90;;;;;;5089090;28;20416;-60
2021/01/05 11:39:34;;;;;;;5.68;3.30;;;4.00;99.90;;;;;;5088719;28;20410;-60
2021/01/05 11:42:04;;;;;;;6.00;3.13;;;4.20;99.90;;;;;;5089055;28;20424;-60
2021/01/05 11:44:31;;;;;;;6.20;3.60;;;4.40;99.90;;;;;;5089313;28;20409;-60
2021/01/05 11:46:57;;;;;;;7.17;3.50;;;4.30;99.90;;;;;;5089375;28;20437;-58
2021/01/05 11:49:24;;;;;;;7.70;4.15;;;4.40;99.90;;;;;;5090555;28;20402;-59
2021/01/05 11:51:52;;;;;;;7.10;3.40;;;4.40;99.90;;;;;;5087282;28;20421;-59
2021/01/05 11:54:20;;;;;;;7.03;3.55;;;4.40;99.90;;;;;;5084911;28;20848;-59
2021/01/05 11:56:46;;;;;;;7.90;3.40;;;4.40;99.90;;;;;;5075656;28;20846;-59
2021/01/05 11:59:13;;;;;;;6.28;3.03;;;4.50;99.90;;;;;;5085538;28;20426;-59
2021/01/05 12:01:41;;;;;;;9.30;4.05;;;4.40;99.90;;;;;;5089385;28;20428;-60
2021/01/05 12:04:09;;;;;;;7.32;3.65;;;4.00;99.90;;;;;;5082440;28;20457;-59
2021/01/05 12:06:38;;;;;;;7.07;3.70;;;3.90;99.90;;;;;;5076997;28;20516;-59
2021/01/05 12:09:05;;;;;;;8.68;3.78;;;3.70;99.90;;;;;;5086618;28;20429;-59
2021/01/05 12:11:34;;;;;;;10.23;4.85;;;3.60;99.90;;;;;;5080467;28;20423;-58
2021/01/05 12:14:01;;;;;;;10.38;4.63;;;3.50;99.90;;;;;;5082863;28;20476;-60
2021/01/05 12:16:29;;;;;;;10.27;4.85;;;3.60;99.90;;;;;;5087002;28;20422;-60
2021/01/05 12:18:58;;;;;;;9.13;3.60;;;3.80;99.90;;;;;;5084615;28;20432;-61
2021/01/05 12:21:26;;;;;;;8.80;3.92;;;3.70;99.90;;;;;;5092375;28;20505;-59
2021/01/05 12:23:53;;;;;;;9.52;4.07;;;3.50;99.90;;;;;;5089830;28;20429;-59
2021/01/05 12:26:27;;;;;;;9.82;4.25;;;3.50;99.90;;;;;;5089929;28;20782;-59
2021/01/05 12:28:53;;;;;;;9.02;3.70;;;3.30;99.90;;;;;;5089547;28;20436;-59
2021/01/05 12:31:20;;;;;;;7.32;3.85;;;3.40;99.90;;;;;;5089959;28;20471;-62
2021/01/05 12:33:46;;;;;;;8.98;3.70;;;3.70;99.90;;;;;;5091471;28;21052;-61
2021/01/05 12:36:23;;;;;;;8.52;3.63;;;3.90;99.90;;;;;;5090894;28;20410;-61
2021/01/05 12:38:49;;;;;;;7.20;3.88;;;4.10;99.90;;;;;;5091830;28;20436;-60
2021/01/05 12:41:15;;;;;;;6.85;3.65;;;4.20;99.90;;;;;;5095093;28;20832;-61
2021/01/05 12:43:42;;;;;;;6.15;3.20;;;4.30;99.90;;;;;;5096272;28;20429;-60
2021/01/05 12:46:09;;;;;;;5.70;2.70;;;4.30;99.90;;;;;;5094450;28;20444;-60
2021/01/05 12:48:36;;;;;;;6.97;3.45;;;4.20;99.90;;;;;;5093450;28;20728;-59
2021/01/05 12:51:02;;;;;;;7.30;3.47;;;4.20;99.90;;;;;;5093246;28;20418;-60
2021/01/05 12:53:30;;;;;;;6.93;3.05;;;4.40;99.90;;;;;;5092972;28;20483;-60
2021/01/05 12:55:56;;;;;;;8.90;3.90;;;4.30;99.90;;;;;;5093764;28;20421;-60
2021/01/05 12:58:22;;;;;;;6.57;3.07;;;4.40;99.90;;;;;;5094543;28;20509;-61
2021/01/05 13:00:49;;;;;;;6.07;2.90;;;4.50;99.90;;;;;;5094885;28;20848;-61
2021/01/05 13:03:15;;;;;;;6.35;3.53;;;4.50;99.90;;;;;;5094508;28;20429;-59
2021/01/05 13:05:41;;;;;;;6.50;3.08;;;4.40;99.90;;;;;;5095740;28;20815;-60
2021/01/05 13:08:07;;;;;;;7.35;3.80;;;4.40;99.90;;;;;;5094280;28;20728;-60
2021/01/05 13:10:36;;;;;;;6.97;3.30;;;4.40;99.90;;;;;;5094827;28;20508;-60